Time;durP1;ratioP1;P1;durP2;ratioP2;P2;SDS_P1;SDS_P2;PMS_P1;PMS_P2;Temp;Humidity;BMP_temperature;BMP_pressure;BME280_temperature;BME280_humidity;BME280_pressure;Samples;Min_cycle;Max_cycle;Signal;HPM_P1;HPM_P2
2020/12/29 00:00:19;;;;;;;5.65;3.90;;;7.80;59.60;;;;;;2079870;28;20036;-73
2020/12/29 00:01:29;;;;;;;4.15;3.75;;;7.80;59.60;;;;;;2077574;28;20033;-73
2020/12/29 00:02:30;;;;;;;;;;;7.80;59.60;;;;;;2084410;28;20029;-72
2020/12/29 00:03:30;;;;;;;3.55;3.25;;;7.80;59.80;;;;;;2084301;28;19944;-73
2020/12/29 00:04:31;;;;;;;4.57;3.58;;;7.80;59.60;;;;;;2083920;28;20061;-73
2020/12/29 00:05:31;;;;;;;5.28;4.00;;;7.80;59.60;;;;;;2084991;28;20028;-73
2020/12/29 00:06:32;;;;;;;4.47;4.07;;;7.80;59.60;;;;;;2084603;28;20048;-73
2020/12/29 00:07:33;;;;;;;4.32;3.92;;;7.80;59.60;;;;;;2083931;28;20037;-73
2020/12/29 00:08:34;;;;;;;5.00;4.25;;;7.80;59.70;;;;;;2083870;28;20421;-74
2020/12/29 00:09:34;;;;;;;4.95;3.90;;;7.80;59.70;;;;;;2084073;28;20341;-73
2020/12/29 00:10:35;;;;;;;4.72;4.30;;;7.80;59.70;;;;;;2083891;28;20430;-73
2020/12/29 00:11:35;;;;;;;6.25;4.68;;;7.80;59.80;;;;;;2075201;28;20474;-73
2020/12/29 00:12:36;;;;;;;4.28;3.88;;;7.70;59.70;;;;;;2070711;28;20029;-73
2020/12/29 00:13:36;;;;;;;4.03;3.72;;;7.70;59.80;;;;;;2078780;28;20038;-73
2020/12/29 00:14:37;;;;;;;4.82;4.35;;;7.70;59.80;;;;;;2083848;28;20040;-73
2020/12/29 00:15:40;;;;;;;5.38;4.38;;;7.70;59.80;;;;;;2084456;28;20501;-73
2020/12/29 00:16:41;;;;;;;3.72;3.42;;;7.70;59.80;;;;;;2082823;28;20027;-72
2020/12/29 00:17:42;;;;;;;5.32;4.43;;;7.70;59.80;;;;;;2075206;28;20527;-73
2020/12/29 00:18:42;;;;;;;5.18;4.10;;;7.70;59.80;;;;;;2065207;28;20023;-73
2020/12/29 00:19:43;;;;;;;5.07;4.50;;;7.70;59.80;;;;;;2066176;28;20371;-73
2020/12/29 00:20:44;;;;;;;4.38;3.97;;;7.70;59.80;;;;;;2076295;28;20578;-74
2020/12/29 00:21:44;;;;;;;4.50;4.10;;;7.70;59.80;;;;;;2084645;28;20435;-73
2020/12/29 00:22:45;;;;;;;4.30;3.90;;;7.70;59.80;;;;;;2075142;28;20444;-73
2020/12/29 00:23:45;;;;;;;5.40;4.18;;;7.70;59.80;;;;;;2075654;28;20022;-73
2020/12/29 00:24:46;;;;;;;3.78;3.38;;;7.70;59.80;;;;;;2084608;28;20053;-73
2020/12/29 00:25:46;;;;;;;6.63;4.13;;;7.70;59.80;;;;;;2084111;28;20111;-72
2020/12/29 00:26:47;;;;;;;3.90;3.47;;;7.60;59.80;;;;;;2075833;28;20353;-73
2020/12/29 00:27:47;;;;;;;4.93;4.13;;;7.70;59.80;;;;;;2076208;28;20479;-74
2020/12/29 00:28:48;;;;;;;5.22;3.78;;;7.70;59.80;;;;;;2085380;28;20079;-73
2020/12/29 00:29:48;;;;;;;4.75;3.78;;;7.60;59.80;;;;;;2084236;28;20033;-74
2020/12/29 00:30:49;;;;;;;5.45;4.00;;;7.70;59.90;;;;;;2083657;28;20048;-74
2020/12/29 00:31:50;;;;;;;3.92;3.55;;;7.60;59.80;;;;;;2084369;28;20037;-74
2020/12/29 00:32:50;;;;;;;4.70;4.03;;;7.60;59.80;;;;;;2084632;28;20028;-73
2020/12/29 00:33:54;;;;;;;5.07;4.40;;;7.70;59.90;;;;;;2084163;28;20363;-73
2020/12/29 00:34:55;;;;;;;4.10;3.80;;;7.60;59.90;;;;;;2084467;28;20055;-73
2020/12/29 00:35:55;;;;;;;6.32;3.85;;;7.60;59.80;;;;;;2077055;28;20113;-74
2020/12/29 00:36:56;;;;;;;4.65;3.70;;;7.60;59.80;;;;;;2075134;28;20080;-73
2020/12/29 00:37:57;;;;;;;6.53;4.32;;;7.60;59.80;;;;;;2075629;28;20394;-73
2020/12/29 00:38:57;;;;;;;4.40;4.00;;;7.60;59.80;;;;;;2075992;28;20060;-73
2020/12/29 00:39:58;;;;;;;5.63;3.95;;;7.60;59.80;;;;;;2083970;28;20366;-73
2020/12/29 00:40:59;;;;;;;5.07;4.22;;;7.60;59.80;;;;;;2084456;28;20511;-73
2020/12/29 00:41:59;;;;;;;4.80;4.00;;;7.60;59.70;;;;;;2084500;28;20380;-73
2020/12/29 00:43:00;;;;;;;6.03;4.68;;;7.60;59.70;;;;;;2084601;28;20030;-74
2020/12/29 00:44:00;;;;;;;5.13;3.72;;;7.60;59.70;;;;;;2084127;28;20091;-73
2020/12/29 00:45:01;;;;;;;4.22;3.80;;;7.60;59.70;;;;;;2083800;28;20049;-73
2020/12/29 00:46:13;;;;;;;5.15;4.03;;;7.60;59.70;;;;;;2083288;28;20017;-74
2020/12/29 00:47:14;;;;;;;5.95;4.22;;;7.60;59.70;;;;;;2084476;28;20301;-74
2020/12/29 00:48:14;;;;;;;4.82;4.05;;;7.60;59.60;;;;;;2084578;28;20454;-73
2020/12/29 00:49:15;;;;;;;5.50;4.00;;;7.60;59.60;;;;;;2084491;28;20037;-73
2020/12/29 00:50:16;;;;;;;4.22;3.90;;;7.60;59.60;;;;;;2084724;28;20049;-73
2020/12/29 00:51:18;;;;;;;6.68;4.05;;;7.50;59.60;;;;;;2084678;28;20246;-73
2020/12/29 00:52:19;;;;;;;4.68;4.13;;;7.60;59.70;;;;;;2083887;28;20036;-73
2020/12/29 00:53:19;;;;;;;5.55;4.70;;;7.50;59.60;;;;;;2083070;28;20420;-73
2020/12/29 00:54:21;;;;;;;4.72;4.20;;;7.50;59.60;;;;;;2083789;28;20464;-73
2020/12/29 00:55:22;;;;;;;5.32;3.78;;;7.50;59.60;;;;;;2083813;28;20033;-74
2020/12/29 00:56:22;;;;;;;5.95;3.92;;;7.50;59.60;;;;;;2075528;28;20040;-73
2020/12/29 00:57:23;;;;;;;3.70;3.40;;;7.50;59.70;;;;;;2075829;28;20090;-73
2020/12/29 00:58:23;;;;;;;6.22;3.95;;;7.50;59.70;;;;;;2079034;28;20026;-73
2020/12/29 00:59:24;;;;;;;4.40;3.88;;;7.50;59.70;;;;;;2070191;28;20103;-73
2020/12/29 01:00:25;;;;;;;7.05;4.38;;;7.50;59.70;;;;;;2075573;28;20030;-73
2020/12/29 01:01:26;;;;;;;4.70;3.70;;;7.50;59.70;;;;;;2082805;28;20720;-73
2020/12/29 01:02:26;;;;;;;5.63;3.83;;;7.50;59.60;;;;;;2084759;28;20095;-72
2020/12/29 01:03:27;;;;;;;4.97;4.13;;;7.50;59.60;;;;;;2084016;28;20036;-73
2020/12/29 01:04:27;;;;;;;6.07;4.10;;;7.50;59.90;;;;;;2084496;28;20025;-73
2020/12/29 01:05:28;;;;;;;4.43;4.03;;;7.50;59.60;;;;;;2084283;28;20025;-73
2020/12/29 01:06:29;;;;;;;4.18;3.70;;;7.40;59.60;;;;;;2084295;28;20025;-74
2020/12/29 01:07:29;;;;;;;4.35;3.78;;;7.50;59.70;;;;;;2084220;28;20102;-73
2020/12/29 01:08:30;;;;;;;4.97;3.60;;;7.50;59.70;;;;;;2083815;28;20021;-73
2020/12/29 01:09:31;;;;;;;5.55;4.07;;;7.50;59.70;;;;;;2084563;28;20040;-72
2020/12/29 01:10:31;;;;;;;4.60;4.20;;;7.40;59.60;;;;;;2083999;28;20026;-74
2020/12/29 01:11:32;;;;;;;5.25;4.20;;;7.40;59.50;;;;;;2084591;28;20024;-75
2020/12/29 01:12:33;;;;;;;4.00;3.70;;;7.40;59.50;;;;;;2084394;28;20120;-73
2020/12/29 01:13:34;;;;;;;5.43;4.20;;;7.40;59.50;;;;;;2083707;28;20087;-74
2020/12/29 01:14:34;;;;;;;4.07;3.72;;;7.40;59.50;;;;;;2084328;28;20099;-74
2020/12/29 01:15:35;;;;;;;5.10;4.32;;;7.40;59.50;;;;;;2083673;28;20045;-73
2020/12/29 01:16:35;;;;;;;4.55;3.85;;;7.40;59.50;;;;;;2083832;28;20029;-74
2020/12/29 01:17:36;;;;;;;4.47;4.07;;;7.40;59.50;;;;;;2084580;28;20029;-73
2020/12/29 01:18:37;;;;;;;4.38;3.92;;;7.40;59.50;;;;;;2084652;28;20025;-73
2020/12/29 01:19:38;;;;;;;4.45;4.05;;;7.40;59.50;;;;;;2083502;28;20091;-74
2020/12/29 01:20:39;;;;;;;4.43;4.00;;;7.40;59.50;;;;;;2084411;28;20168;-74
2020/12/29 01:21:39;;;;;;;4.97;4.10;;;7.40;59.50;;;;;;2083401;28;20079;-74
2020/12/29 01:22:40;;;;;;;5.15;4.25;;;7.40;59.50;;;;;;2084122;28;20034;-75
2020/12/29 01:23:41;;;;;;;7.38;4.10;;;7.40;59.50;;;;;;2084410;28;20237;-75
2020/12/29 01:24:42;;;;;;;4.50;3.67;;;7.30;59.40;;;;;;2083367;28;20080;-73
2020/12/29 01:25:43;;;;;;;4.97;4.10;;;7.30;59.40;;;;;;2084743;28;20029;-73
2020/12/29 01:26:43;;;;;;;4.60;4.20;;;7.30;59.40;;;;;;2084125;28;20036;-73
2020/12/29 01:27:44;;;;;;;4.32;3.92;;;7.30;59.40;;;;;;2083900;28;20029;-73
2020/12/29 01:28:44;;;;;;;4.22;3.80;;;7.30;59.40;;;;;;2084384;28;20035;-73
2020/12/29 01:29:45;;;;;;;4.40;4.10;;;7.30;59.40;;;;;;2084134;28;20021;-73
2020/12/29 01:30:46;;;;;;;4.40;4.00;;;7.30;59.40;;;;;;2083656;28;20057;-73
2020/12/29 01:31:47;;;;;;;5.72;4.53;;;7.30;59.40;;;;;;2083421;28;20063;-73
2020/12/29 01:32:47;;;;;;;4.90;4.07;;;7.30;59.40;;;;;;2084205;28;20041;-73
2020/12/29 01:33:48;;;;;;;4.90;4.25;;;7.30;59.40;;;;;;2075257;28;20033;-73
2020/12/29 01:34:48;;;;;;;5.10;4.22;;;7.30;59.40;;;;;;2058444;28;20587;-73
2020/12/29 01:35:49;;;;;;;4.32;3.92;;;7.30;59.50;;;;;;2066816;28;20605;-73
2020/12/29 01:36:49;;;;;;;5.07;4.28;;;7.20;59.50;;;;;;2083919;28;20359;-73
2020/12/29 01:37:50;;;;;;;4.60;4.10;;;7.20;59.50;;;;;;2084168;28;20359;-73
2020/12/29 01:38:51;;;;;;;7.05;4.40;;;7.20;59.40;;;;;;2084542;28;20359;-74
2020/12/29 01:39:51;;;;;;;5.07;4.57;;;7.20;59.50;;;;;;2083719;28;20056;-74
2020/12/29 01:40:58;;;;;;;4.22;3.78;;;7.20;59.50;;;;;;2083893;28;20041;-73
2020/12/29 01:41:59;;;;;;;5.40;4.10;;;7.20;59.60;;;;;;2084040;28;20099;-74
2020/12/29 01:43:00;;;;;;;5.78;4.57;;;7.20;59.60;;;;;;2083886;28;20382;-72
2020/12/29 01:44:13;;;;;;;4.95;4.20;;;7.20;59.50;;;;;;2083586;28;20618;-74
2020/12/29 01:45:15;;;;;;;4.78;4.32;;;7.20;59.50;;;;;;2083740;28;20029;-74
2020/12/29 01:46:16;;;;;;;4.78;4.32;;;7.20;59.50;;;;;;2083385;28;20091;-73
2020/12/29 01:47:17;;;;;;;5.88;4.50;;;7.20;59.60;;;;;;2075661;28;20033;-73
2020/12/29 01:48:18;;;;;;;6.65;4.55;;;7.20;59.60;;;;;;2076111;28;20076;-73
2020/12/29 01:49:18;;;;;;;6.57;4.45;;;7.20;59.60;;;;;;2083708;28;20043;-73
2020/12/29 01:50:22;;;;;;;5.30;4.80;;;7.20;59.60;;;;;;2083826;28;20057;-73
2020/12/29 01:51:22;;;;;;;5.97;4.00;;;7.20;59.60;;;;;;2084003;28;20029;-72
2020/12/29 01:52:23;;;;;;;4.65;4.25;;;7.10;59.50;;;;;;2084007;28;20025;-75
2020/12/29 01:53:23;;;;;;;5.43;4.75;;;7.20;59.60;;;;;;2085478;28;20318;-74
2020/12/29 01:54:25;;;;;;;4.65;4.20;;;7.10;59.50;;;;;;2085954;28;20057;-74
2020/12/29 01:55:26;;;;;;;4.70;4.30;;;7.10;59.50;;;;;;2085579;28;20040;-74
2020/12/29 01:56:30;;;;;;;5.47;4.05;;;7.10;59.50;;;;;;2085503;28;20487;-74
2020/12/29 01:57:32;;;;;;;4.70;4.30;;;7.10;59.50;;;;;;2085877;28;20076;-74
2020/12/29 01:58:35;;;;;;;5.72;4.70;;;7.10;59.60;;;;;;2085236;28;20045;-72
2020/12/29 01:59:36;;;;;;;4.30;3.80;;;7.10;59.50;;;;;;2076467;28;20480;-72
2020/12/29 02:00:37;;;;;;;6.25;4.68;;;7.10;59.50;;;;;;2076467;28;20028;-72
2020/12/29 02:01:42;;;;;;;4.93;4.45;;;7.10;59.50;;;;;;2076478;28;20077;-74
2020/12/29 02:02:42;;;;;;;5.93;4.30;;;7.10;59.50;;;;;;2077522;28;20026;-72
2020/12/29 02:03:43;;;;;;;4.38;4.07;;;7.10;59.50;;;;;;2085650;28;20029;-74
2020/12/29 02:04:44;;;;;;;7.25;4.28;;;7.10;59.50;;;;;;2085024;28;20033;-74
2020/12/29 02:05:48;;;;;;;5.07;4.40;;;7.10;59.40;;;;;;2086752;28;20072;-73
2020/12/29 02:06:49;;;;;;;5.72;4.50;;;7.10;59.40;;;;;;2085431;28;20061;-73
2020/12/29 02:07:50;;;;;;;6.13;3.90;;;7.10;59.50;;;;;;2085215;28;20104;-72
2020/12/29 02:08:51;;;;;;;5.07;4.47;;;7.10;59.50;;;;;;2086311;28;20029;-74
2020/12/29 02:09:51;;;;;;;6.45;4.40;;;7.10;59.50;;;;;;2085353;28;20456;-74
2020/12/29 02:10:53;;;;;;;5.95;4.07;;;7.10;59.50;;;;;;2085116;28;20037;-74
2020/12/29 02:11:54;;;;;;;4.65;4.22;;;7.10;59.60;;;;;;2085461;28;20051;-74
2020/12/29 02:12:56;;;;;;;5.32;3.88;;;7.00;59.50;;;;;;2085155;28;20056;-74
2020/12/29 02:13:56;;;;;;;5.38;4.47;;;7.10;59.50;;;;;;2085156;28;20017;-75
2020/12/29 02:14:58;;;;;;;6.60;3.88;;;7.10;59.50;;;;;;2086024;28;20025;-74
2020/12/29 02:15:59;;;;;;;4.45;3.97;;;7.00;59.50;;;;;;2085492;28;20017;-74
2020/12/29 02:16:59;;;;;;;5.50;4.35;;;7.00;59.50;;;;;;2085267;28;20036;-73
2020/12/29 02:18:00;;;;;;;4.55;4.15;;;7.00;59.50;;;;;;2077294;28;20038;-73
2020/12/29 02:19:00;;;;;;;5.13;4.32;;;7.00;59.50;;;;;;2068876;28;20030;-74
2020/12/29 02:20:03;;;;;;;5.85;4.13;;;7.00;59.60;;;;;;2077437;28;20033;-74
2020/12/29 02:21:03;;;;;;;5.95;4.15;;;7.00;59.60;;;;;;2084647;28;20033;-73
2020/12/29 02:22:04;;;;;;;4.57;4.18;;;7.00;59.60;;;;;;2085350;28;20036;-73
2020/12/29 02:23:04;;;;;;;6.65;4.18;;;7.00;59.70;;;;;;2085695;28;20100;-74
2020/12/29 02:24:06;;;;;;;4.53;4.07;;;7.00;59.70;;;;;;2077506;28;20508;-73
2020/12/29 02:25:10;;;;;;;4.43;4.03;;;7.00;59.80;;;;;;2068727;28;20030;-73
2020/12/29 02:26:10;;;;;;;5.80;4.78;;;7.00;59.80;;;;;;2076962;28;20030;-73
2020/12/29 02:27:11;;;;;;;4.88;4.32;;;7.00;59.90;;;;;;2085250;28;20098;-74
2020/12/29 02:28:11;;;;;;;5.05;4.50;;;7.00;59.90;;;;;;2085808;28;20025;-73
2020/12/29 02:29:12;;;;;;;4.65;4.22;;;7.00;60.00;;;;;;2085007;28;20064;-74
2020/12/29 02:30:13;;;;;;;4.60;4.20;;;7.00;60.10;;;;;;2085815;28;20018;-74
2020/12/29 02:31:13;;;;;;;5.50;5.00;;;7.00;60.20;;;;;;2084758;28;20100;-73
2020/12/29 02:32:14;;;;;;;5.30;4.35;;;7.00;60.20;;;;;;2084614;28;20022;-74
2020/12/29 02:33:15;;;;;;;4.78;4.00;;;7.00;60.20;;;;;;2079626;28;20611;-73
2020/12/29 02:34:15;;;;;;;7.45;4.40;;;7.00;60.30;;;;;;2076171;28;20226;-73
2020/12/29 02:35:17;;;;;;;4.90;4.30;;;7.00;60.30;;;;;;2076263;28;20519;-73
2020/12/29 02:36:17;;;;;;;4.65;4.13;;;7.10;60.40;;;;;;2086063;28;20132;-74
2020/12/29 02:37:19;;;;;;;5.35;4.32;;;7.00;60.30;;;;;;2085494;28;20468;-74
2020/12/29 02:38:24;;;;;;;6.03;4.63;;;7.10;60.30;;;;;;2085541;28;20057;-74
2020/12/29 02:39:24;;;;;;;5.90;4.88;;;7.10;60.20;;;;;;2084611;28;20025;-74
2020/12/29 02:40:25;;;;;;;4.75;4.32;;;7.10;60.30;;;;;;2076128;28;20049;-73
2020/12/29 02:41:25;;;;;;;4.53;4.13;;;7.10;60.30;;;;;;2076776;28;20036;-73
2020/12/29 02:42:26;;;;;;;5.18;4.68;;;7.10;60.90;;;;;;2085410;28;20096;-74
2020/12/29 02:43:27;;;;;;;4.72;4.32;;;7.10;60.20;;;;;;2076243;28;20041;-73
2020/12/29 02:44:27;;;;;;;4.43;4.03;;;7.10;60.20;;;;;;2077207;28;20076;-74
2020/12/29 02:45:28;;;;;;;5.68;4.30;;;7.10;60.20;;;;;;2076363;28;20025;-74
2020/12/29 02:46:28;;;;;;;4.97;4.55;;;7.10;60.20;;;;;;2075824;28;20037;-73
2020/12/29 02:47:30;;;;;;;4.57;4.18;;;7.10;60.10;;;;;;2085088;28;20378;-74
2020/12/29 02:48:30;;;;;;;4.88;4.38;;;7.10;60.10;;;;;;2076284;28;20061;-73
2020/12/29 02:49:34;;;;;;;5.78;4.60;;;7.10;60.10;;;;;;2076209;28;20025;-73
2020/12/29 02:50:35;;;;;;;5.40;4.80;;;7.10;60.10;;;;;;2085464;28;20037;-73
2020/12/29 02:51:35;;;;;;;6.00;4.75;;;7.10;60.00;;;;;;2086173;28;20384;-74
2020/12/29 02:52:36;;;;;;;6.50;4.75;;;7.10;60.00;;;;;;2085101;28;20374;-74
2020/12/29 02:53:36;;;;;;;5.05;4.53;;;7.10;60.00;;;;;;2084628;28;20448;-73
2020/12/29 02:54:37;;;;;;;6.63;4.28;;;7.10;60.00;;;;;;2080430;28;20135;-73
2020/12/29 02:55:37;;;;;;;4.95;4.18;;;7.10;59.90;;;;;;2080188;28;20021;-73
2020/12/29 02:56:39;;;;;;;5.72;4.30;;;7.10;59.90;;;;;;2084878;28;20028;-73
2020/12/29 02:57:40;;;;;;;5.15;4.18;;;7.10;59.90;;;;;;2085218;28;20044;-73
2020/12/29 02:58:40;;;;;;;4.68;4.22;;;7.10;60.00;;;;;;2085122;28;20402;-74
2020/12/29 02:59:41;;;;;;;5.50;4.05;;;7.20;60.10;;;;;;2084609;28;20065;-73
2020/12/29 03:00:41;;;;;;;7.60;4.60;;;7.20;60.10;;;;;;2085334;28;20055;-73
2020/12/29 03:01:42;;;;;;;6.90;4.20;;;7.20;60.10;;;;;;2084307;28;20032;-74
2020/12/29 03:02:42;;;;;;;6.72;5.00;;;7.20;60.10;;;;;;2076278;28;20036;-72
2020/12/29 03:03:43;;;;;;;5.28;4.60;;;7.20;60.00;;;;;;2060515;28;20096;-74
2020/12/29 03:04:43;;;;;;;5.07;4.18;;;7.20;59.90;;;;;;2068205;28;20029;-74
2020/12/29 03:05:44;;;;;;;5.43;4.60;;;7.20;59.90;;;;;;2085883;28;20099;-72
2020/12/29 03:06:45;;;;;;;5.30;4.78;;;7.20;59.90;;;;;;2085168;28;20060;-73
2020/12/29 03:07:45;;;;;;;4.50;4.10;;;7.20;59.90;;;;;;2084506;28;20017;-73
2020/12/29 03:08:46;;;;;;;4.80;4.38;;;7.20;59.90;;;;;;2085291;28;20155;-73
2020/12/29 03:09:47;;;;;;;5.13;4.65;;;7.20;59.80;;;;;;2084858;28;20052;-73
2020/12/29 03:10:47;;;;;;;4.78;4.32;;;7.20;59.80;;;;;;2084859;28;20352;-73
2020/12/29 03:11:48;;;;;;;4.68;4.18;;;7.20;59.70;;;;;;2084973;28;20065;-73
2020/12/29 03:12:48;;;;;;;4.50;4.10;;;7.10;59.70;;;;;;2084736;28;20349;-73
2020/12/29 03:13:49;;;;;;;6.90;4.20;;;7.20;59.80;;;;;;2084848;28;20021;-73
2020/12/29 03:14:49;;;;;;;4.85;4.38;;;7.20;59.80;;;;;;2085609;28;20106;-73
2020/12/29 03:15:50;;;;;;;4.38;3.97;;;7.20;59.70;;;;;;2084551;28;20383;-73
2020/12/29 03:16:50;;;;;;;5.10;4.60;;;7.10;59.70;;;;;;2084623;28;20029;-74
2020/12/29 03:17:51;;;;;;;4.80;4.32;;;7.10;59.70;;;;;;2085272;28;20051;-73
2020/12/29 03:18:53;;;;;;;4.70;4.20;;;7.10;59.70;;;;;;2084793;28;20075;-73
2020/12/29 03:19:53;;;;;;;4.47;4.10;;;7.10;59.70;;;;;;2080063;28;20468;-73
2020/12/29 03:20:54;;;;;;;8.48;4.57;;;7.10;59.70;;;;;;2069500;28;20057;-73
2020/12/29 03:21:55;;;;;;;4.40;4.10;;;7.10;59.70;;;;;;2068222;28;20105;-72
2020/12/29 03:22:56;;;;;;;6.25;4.57;;;7.10;59.70;;;;;;2084256;28;20020;-72
2020/12/29 03:23:59;;;;;;;5.38;3.95;;;7.10;59.60;;;;;;2085070;28;20044;-74
2020/12/29 03:24:59;;;;;;;5.70;4.90;;;7.10;59.60;;;;;;2075757;28;20107;-72
2020/12/29 03:26:00;;;;;;;5.85;4.60;;;7.10;59.60;;;;;;2076199;28;20155;-73
2020/12/29 03:27:00;;;;;;;5.72;4.20;;;7.10;59.60;;;;;;2084721;28;20025;-73
2020/12/29 03:28:01;;;;;;;5.15;4.25;;;7.10;59.70;;;;;;2085562;28;20028;-73
2020/12/29 03:29:01;;;;;;;6.22;4.57;;;7.10;59.70;;;;;;2084003;28;20021;-73
2020/12/29 03:30:02;;;;;;;5.53;4.47;;;7.10;59.70;;;;;;2085885;28;20041;-73
2020/12/29 03:31:06;;;;;;;7.63;4.72;;;7.10;59.70;;;;;;2083919;28;20144;-72
2020/12/29 03:32:07;;;;;;;6.65;4.57;;;7.10;59.70;;;;;;2075262;28;20034;-73
2020/12/29 03:33:07;;;;;;;5.60;4.53;;;7.00;59.60;;;;;;2076365;28;20038;-72
2020/12/29 03:34:08;;;;;;;5.80;4.20;;;7.10;60.30;;;;;;2084965;28;20036;-72
2020/12/29 03:35:09;;;;;;;6.70;4.60;;;7.00;59.70;;;;;;2084798;28;20017;-73
2020/12/29 03:36:09;;;;;;;5.47;4.75;;;7.00;59.70;;;;;;2085117;28;20017;-73
2020/12/29 03:37:11;;;;;;;5.28;4.40;;;7.00;59.70;;;;;;2084414;28;20343;-73
2020/12/29 03:38:11;;;;;;;6.10;4.82;;;7.00;59.70;;;;;;2085216;28;20548;-74
2020/12/29 03:39:12;;;;;;;8.13;5.15;;;7.00;59.60;;;;;;2076564;28;20038;-74
2020/12/29 03:40:12;;;;;;;5.43;4.63;;;7.00;59.60;;;;;;2076001;28;20022;-74
2020/12/29 03:41:13;;;;;;;5.03;4.53;;;7.00;59.60;;;;;;2084674;28;20075;-74
2020/12/29 03:42:14;;;;;;;6.00;4.88;;;7.00;59.60;;;;;;2075721;28;20469;-74
2020/12/29 03:43:15;;;;;;;5.03;4.60;;;7.00;59.70;;;;;;2075873;28;20491;-74
2020/12/29 03:44:16;;;;;;;5.25;4.75;;;7.00;59.70;;;;;;2084264;28;20138;-74
2020/12/29 03:45:16;;;;;;;6.55;5.10;;;6.90;59.60;;;;;;2084342;28;20021;-74
2020/12/29 03:46:17;;;;;;;6.15;4.53;;;6.90;60.20;;;;;;2083442;28;20159;-74
2020/12/29 03:47:17;;;;;;;5.93;5.05;;;7.00;59.60;;;;;;2085542;28;20029;-73
2020/12/29 03:48:20;;;;;;;4.88;4.47;;;6.90;59.50;;;;;;2085584;28;20053;-73
2020/12/29 03:49:21;;;;;;;5.38;4.82;;;6.90;59.60;;;;;;2084895;28;20039;-73
2020/12/29 03:50:22;;;;;;;6.07;4.40;;;6.90;59.60;;;;;;2085216;28;20025;-74
2020/12/29 03:51:22;;;;;;;4.80;4.40;;;6.90;59.70;;;;;;2084927;28;20025;-73
2020/12/29 03:52:23;;;;;;;5.22;4.72;;;6.90;59.70;;;;;;2085187;28;20101;-72
2020/12/29 03:53:23;;;;;;;6.63;4.45;;;6.90;59.70;;;;;;2084961;28;20060;-74
2020/12/29 03:54:24;;;;;;;8.02;4.60;;;6.90;59.70;;;;;;2084086;28;20033;-73
2020/12/29 03:55:24;;;;;;;6.43;4.90;;;6.90;59.70;;;;;;2084402;28;20057;-73
2020/12/29 03:56:25;;;;;;;5.55;4.85;;;6.80;59.60;;;;;;2085035;28;20032;-73
2020/12/29 03:57:25;;;;;;;7.30;5.10;;;6.90;59.70;;;;;;2084286;28;20022;-73
2020/12/29 03:58:26;;;;;;;4.85;4.43;;;6.80;59.60;;;;;;2084756;28;20519;-73
2020/12/29 03:59:26;;;;;;;5.13;4.38;;;6.80;59.60;;;;;;2084722;28;20029;-73
2020/12/29 04:00:27;;;;;;;4.70;4.28;;;6.80;59.70;;;;;;2084627;28;20036;-73
2020/12/29 04:01:28;;;;;;;5.65;4.85;;;6.80;59.70;;;;;;2083526;28;20040;-74
2020/12/29 04:02:28;;;;;;;5.20;4.55;;;6.80;59.70;;;;;;2076848;28;20032;-73
2020/12/29 04:03:29;;;;;;;5.07;4.68;;;6.80;59.70;;;;;;2076386;28;20040;-73
2020/12/29 04:04:29;;;;;;;5.72;4.88;;;6.80;59.70;;;;;;2084731;28;20029;-73
2020/12/29 04:05:30;;;;;;;6.88;4.82;;;6.80;59.60;;;;;;2085345;28;20032;-73
2020/12/29 04:06:31;;;;;;;6.15;5.22;;;6.80;59.60;;;;;;2085014;28;20463;-72
2020/12/29 04:07:31;;;;;;;6.05;5.13;;;6.80;59.60;;;;;;2084987;28;20018;-73
2020/12/29 04:08:32;;;;;;;5.35;4.85;;;6.80;59.70;;;;;;2085070;28;20056;-73
2020/12/29 04:09:33;;;;;;;5.13;4.57;;;6.80;59.70;;;;;;2084706;28;20021;-73
2020/12/29 04:10:34;;;;;;;9.88;5.18;;;6.80;59.70;;;;;;2084727;28;20032;-73
2020/12/29 04:11:34;;;;;;;6.95;4.90;;;6.70;59.60;;;;;;2078962;28;20029;-73
2020/12/29 04:12:35;;;;;;;5.63;4.63;;;6.70;59.60;;;;;;2071262;28;20022;-73
2020/12/29 04:13:35;;;;;;;5.70;4.80;;;6.70;59.60;;;;;;2071221;28;20026;-73
2020/12/29 04:14:36;;;;;;;5.80;5.00;;;6.70;59.60;;;;;;2079441;28;20030;-73
2020/12/29 04:15:37;;;;;;;7.30;5.50;;;6.70;59.60;;;;;;2084095;28;20037;-73
2020/12/29 04:16:37;;;;;;;6.90;5.13;;;6.70;59.60;;;;;;2084682;28;20366;-72
2020/12/29 04:17:39;;;;;;;8.07;5.60;;;6.70;60.10;;;;;;2084323;28;20047;-72
2020/12/29 04:18:41;;;;;;;6.85;5.15;;;6.70;59.50;;;;;;2084078;28;20070;-73
2020/12/29 04:19:41;;;;;;;5.55;5.05;;;6.60;59.50;;;;;;2075707;28;20029;-73
2020/12/29 04:20:42;;;;;;;7.93;6.03;;;6.60;59.50;;;;;;2075594;28;20026;-73
2020/12/29 04:21:42;;;;;;;7.38;6.22;;;6.60;59.40;;;;;;2083859;28;20080;-74
2020/12/29 04:22:43;;;;;;;8.57;6.90;;;6.60;59.40;;;;;;2084200;28;20060;-73
2020/12/29 04:23:44;;;;;;;21.13;11.57;;;6.60;59.50;;;;;;2075763;28;20045;-73
2020/12/29 04:24:44;;;;;;;21.85;12.57;;;6.60;59.50;;;;;;2075700;28;20116;-73
2020/12/29 04:25:45;;;;;;;17.27;10.00;;;6.60;59.60;;;;;;2084535;28;20029;-73
2020/12/29 04:26:45;;;;;;;13.27;8.32;;;6.50;59.50;;;;;;2083873;28;20518;-73
2020/12/29 04:27:46;;;;;;;8.77;7.05;;;6.50;59.50;;;;;;2084580;28;20422;-72
2020/12/29 04:28:46;;;;;;;6.88;5.85;;;6.50;59.60;;;;;;2084605;28;20846;-73
2020/12/29 04:29:47;;;;;;;7.20;5.90;;;6.50;59.70;;;;;;2083440;28;20044;-73
2020/12/29 04:30:47;;;;;;;10.20;6.15;;;6.50;59.70;;;;;;2083933;28;20447;-73
2020/12/29 04:31:48;;;;;;;8.80;6.47;;;6.50;59.70;;;;;;2084127;28;20641;-73
2020/12/29 04:32:48;;;;;;;8.10;5.82;;;6.50;59.80;;;;;;2084341;28;20927;-73
2020/12/29 04:33:49;;;;;;;7.07;5.65;;;6.50;59.90;;;;;;2084160;28;20541;-73
2020/12/29 04:34:50;;;;;;;10.38;5.65;;;6.50;59.90;;;;;;2084673;28;20025;-72
2020/12/29 04:35:50;;;;;;;9.23;5.95;;;6.50;60.00;;;;;;2075194;28;20026;-73
2020/12/29 04:36:55;;;;;;;7.13;5.50;;;6.40;59.90;;;;;;2075540;28;20018;-73
2020/12/29 04:37:55;;;;;;;7.95;6.03;;;6.50;60.00;;;;;;2084918;28;20033;-73
2020/12/29 04:38:56;;;;;;;7.95;5.70;;;6.40;60.00;;;;;;2084684;28;20021;-73
2020/12/29 04:39:56;;;;;;;10.23;5.85;;;6.50;60.00;;;;;;2075635;28;20424;-75
2020/12/29 04:40:57;;;;;;;9.38;5.38;;;6.40;60.00;;;;;;2075690;28;20357;-73
2020/12/29 04:42:06;;;;;;;8.27;6.07;;;6.40;59.90;;;;;;2083289;28;20101;-72
2020/12/29 04:43:06;;;;;;;6.70;4.95;;;6.40;59.90;;;;;;2083910;28;20036;-74
2020/12/29 04:44:07;;;;;;;6.45;5.60;;;6.50;60.00;;;;;;2084569;28;20250;-73
2020/12/29 04:45:08;;;;;;;6.80;5.88;;;6.40;59.90;;;;;;2084403;28;20031;-72
2020/12/29 04:46:10;;;;;;;8.25;5.68;;;6.40;59.90;;;;;;2083273;28;20043;-72
2020/12/29 04:47:12;;;;;;;7.00;5.50;;;6.40;60.00;;;;;;2084022;28;20025;-74
2020/12/29 04:48:12;;;;;;;7.82;5.80;;;6.40;60.00;;;;;;2084171;28;20665;-74
2020/12/29 04:49:13;;;;;;;7.30;5.68;;;6.40;60.00;;;;;;2085090;28;20047;-72
2020/12/29 04:50:17;;;;;;;6.50;5.40;;;6.40;60.00;;;;;;2084598;28;20025;-72
2020/12/29 04:51:18;;;;;;;7.95;5.40;;;6.40;60.00;;;;;;2084700;28;20052;-73
2020/12/29 04:52:19;;;;;;;6.20;5.40;;;6.40;60.10;;;;;;2084169;28;20017;-71
2020/12/29 04:53:23;;;;;;;7.07;5.90;;;6.40;60.10;;;;;;2083545;28;20060;-73
2020/12/29 04:54:31;;;;;;;6.47;5.63;;;6.40;60.10;;;;;;2084054;28;20087;-74
2020/12/29 04:55:36;;;;;;;6.47;5.30;;;6.40;60.10;;;;;;2084455;28;20021;-73
2020/12/29 04:56:39;;;;;;;6.88;5.47;;;6.40;60.10;;;;;;2075585;28;20026;-72
2020/12/29 04:57:44;;;;;;;6.57;5.38;;;6.40;60.10;;;;;;2067699;28;20058;-73
2020/12/29 04:58:45;;;;;;;6.18;5.38;;;6.40;60.20;;;;;;2076260;28;20472;-73
2020/12/29 04:59:45;;;;;;;7.25;5.88;;;6.40;60.20;;;;;;2084126;28;20036;-73
2020/12/29 05:00:47;;;;;;;8.45;5.93;;;6.40;60.30;;;;;;2075315;28;20332;-72
2020/12/29 05:01:47;;;;;;;6.60;5.55;;;6.40;60.30;;;;;;2074474;28;20025;-72
2020/12/29 05:02:48;;;;;;;6.50;5.13;;;6.40;60.40;;;;;;2084344;28;20021;-72
2020/12/29 05:03:49;;;;;;;6.78;5.07;;;6.40;60.50;;;;;;2083394;28;20017;-72
2020/12/29 05:04:50;;;;;;;5.72;4.93;;;6.30;60.50;;;;;;2083407;28;20033;-73
2020/12/29 05:05:52;;;;;;;7.07;5.55;;;6.40;60.50;;;;;;2085360;28;20036;-72
2020/12/29 05:06:53;;;;;;;6.68;5.50;;;6.30;60.50;;;;;;2076250;28;20438;-72
2020/12/29 05:07:53;;;;;;;5.65;4.95;;;6.30;60.60;;;;;;2075441;28;20037;-72
2020/12/29 05:08:54;;;;;;;7.25;5.57;;;6.40;60.70;;;;;;2084941;28;20095;-72
2020/12/29 05:10:06;;;;;;;5.30;4.90;;;6.40;60.80;;;;;;2083733;28;20133;-73
2020/12/29 05:11:07;;;;;;;6.25;5.22;;;6.40;60.90;;;;;;2083603;28;20059;-73
2020/12/29 05:12:08;;;;;;;5.97;5.30;;;6.40;60.90;;;;;;2084584;28;20127;-73
2020/12/29 05:13:08;;;;;;;6.00;5.35;;;6.40;61.00;;;;;;2084315;28;20079;-74
2020/12/29 05:14:09;;;;;;;8.13;5.90;;;6.30;60.90;;;;;;2084355;28;20060;-73
2020/12/29 05:15:09;;;;;;;5.95;5.22;;;6.40;61.10;;;;;;2076103;28;20060;-75
2020/12/29 05:16:10;;;;;;;6.55;4.95;;;6.30;61.00;;;;;;2074211;28;20048;-73
2020/12/29 05:17:11;;;;;;;6.97;5.20;;;6.30;61.10;;;;;;2083760;28;20032;-74
2020/12/29 05:18:11;;;;;;;6.97;5.32;;;6.30;61.20;;;;;;2084498;28;20061;-73
2020/12/29 05:19:18;;;;;;;7.75;5.25;;;6.30;61.30;;;;;;2083696;28;20029;-73
2020/12/29 05:20:33;;;;;;;5.97;5.13;;;6.30;61.40;;;;;;2084728;28;20053;-73
2020/12/29 05:21:35;;;;;;;8.20;5.28;;;6.40;61.50;;;;;;2084071;28;20045;-73
2020/12/29 05:22:39;;;;;;;7.22;5.47;;;6.40;61.50;;;;;;2084547;28;20025;-73